Time;durP1;ratioP1;P1;durP2;ratioP2;P2;SDS_P1;SDS_P2;PMS_P1;PMS_P2;Temp;Humidity;BMP_temperature;BMP_pressure;BME280_temperature;BME280_humidity;BME280_pressure;Samples;Min_cycle;Max_cycle;Signal;HPM_P1;HPM_P2
2022/07/11 00:02:02;;;;;;;11.80;4.23;;;16.70;99.90;;;;;;5032974;28;20255;-77
2022/07/11 00:04:29;;;;;;;7.03;3.90;;;16.70;99.90;;;;;;5032346;28;20200;-78
2022/07/11 00:06:55;;;;;;;8.17;4.50;;;16.70;99.90;;;;;;5033460;28;20654;-78
2022/07/11 00:09:21;;;;;;;10.87;4.67;;;16.60;99.90;;;;;;5032247;28;20177;-78
2022/07/11 00:11:48;;;;;;;10.27;5.00;;;16.60;99.90;;;;;;5032513;28;20181;-79
2022/07/11 00:14:14;;;;;;;14.70;5.20;;;16.60;99.90;;;;;;5032652;28;20213;-79
2022/07/11 00:16:41;;;;;;;9.10;4.80;;;16.60;99.90;;;;;;5033350;28;20185;-77
2022/07/11 00:19:06;;;;;;;11.57;4.87;;;16.60;99.90;;;;;;5033018;28;20166;-78
2022/07/11 00:21:34;;;;;;;11.83;4.90;;;16.60;99.90;;;;;;5032782;28;20166;-77
2022/07/11 00:24:00;;;;;;;12.63;4.97;;;16.60;99.90;;;;;;5033588;28;20665;-79
2022/07/11 00:26:26;;;;;;;10.13;5.23;;;16.70;99.90;;;;;;5033577;28;20178;-78
2022/07/11 00:28:52;;;;;;;16.57;5.37;;;16.60;99.90;;;;;;5034231;28;20592;-79
2022/07/11 00:31:17;;;;;;;15.40;5.27;;;16.60;99.90;;;;;;5033280;28;20182;-79
2022/07/11 00:33:43;;;;;;;10.13;4.83;;;16.60;99.90;;;;;;5032864;28;20198;-77
2022/07/11 00:36:09;;;;;;;9.03;5.37;;;16.60;99.90;;;;;;5032378;28;20197;-77
2022/07/11 00:38:34;;;;;;;11.50;5.27;;;16.60;99.90;;;;;;5032007;28;20169;-77
2022/07/11 00:41:00;;;;;;;12.70;5.10;;;16.50;99.90;;;;;;5032270;28;20178;-79
2022/07/11 00:43:31;;;;;;;11.57;5.40;;;16.50;99.90;;;;;;5033317;28;20217;-76
2022/07/11 00:45:56;;;;;;;12.03;5.40;;;16.60;99.90;;;;;;5032499;28;20186;-77
2022/07/11 00:48:22;;;;;;;13.23;5.60;;;16.60;99.90;;;;;;5032582;28;20181;-78
2022/07/11 00:50:48;;;;;;;12.13;5.50;;;16.50;99.90;;;;;;5033929;28;20177;-79
2022/07/11 00:53:13;;;;;;;7.90;5.20;;;16.60;99.90;;;;;;5033727;28;20228;-76
2022/07/11 00:55:40;;;;;;;8.63;5.57;;;16.60;99.90;;;;;;5033083;28;20250;-76
2022/07/11 00:58:06;;;;;;;10.07;5.20;;;16.50;99.90;;;;;;5032742;28;20188;-78
2022/07/11 01:00:33;;;;;;;9.33;4.97;;;16.50;99.90;;;;;;5032218;28;20178;-79
2022/07/11 01:02:58;;;;;;;13.97;5.27;;;16.50;99.90;;;;;;5033019;28;20807;-76
2022/07/11 01:05:24;;;;;;;10.57;4.93;;;16.50;99.90;;;;;;5032423;28;20197;-76
2022/07/11 01:07:50;;;;;;;11.77;5.43;;;16.50;99.90;;;;;;5033762;28;20550;-78
2022/07/11 01:10:16;;;;;;;13.27;6.10;;;16.50;99.90;;;;;;5032496;28;20170;-78
2022/07/11 01:12:41;;;;;;;11.87;5.17;;;16.50;99.90;;;;;;5033789;28;20170;-79
2022/07/11 01:15:07;;;;;;;7.20;5.10;;;16.50;99.90;;;;;;5034051;28;20209;-78
2022/07/11 01:17:33;;;;;;;13.33;5.27;;;16.50;99.90;;;;;;5034246;28;20630;-79
2022/07/11 01:20:00;;;;;;;9.00;5.60;;;16.50;99.90;;;;;;5035738;28;20178;-78
2022/07/11 01:22:28;;;;;;;13.07;5.87;;;16.60;99.90;;;;;;5034322;28;20224;-79
2022/07/11 01:24:54;;;;;;;12.97;5.77;;;16.50;99.90;;;;;;5032135;28;20178;-78
2022/07/11 01:27:22;;;;;;;12.00;6.10;;;16.50;99.90;;;;;;5033006;28;20700;-77
2022/07/11 01:29:47;;;;;;;16.77;6.03;;;16.50;99.90;;;;;;5033292;28;20178;-77
2022/07/11 01:32:13;;;;;;;12.77;6.00;;;16.40;99.90;;;;;;5036162;28;20174;-78
2022/07/11 01:34:39;;;;;;;13.13;5.90;;;16.50;99.90;;;;;;5036961;28;20228;-77
2022/07/11 01:37:04;;;;;;;12.80;5.93;;;16.50;99.90;;;;;;5036013;28;20265;-77
2022/07/11 01:39:30;;;;;;;12.67;5.53;;;16.50;99.90;;;;;;5035973;28;20180;-78
2022/07/11 01:41:59;;;;;;;9.33;5.50;;;16.50;99.90;;;;;;5035740;28;20189;-78
2022/07/11 01:44:25;;;;;;;11.20;5.83;;;16.50;99.90;;;;;;5036757;28;20200;-79
2022/07/11 01:46:51;;;;;;;9.63;5.90;;;16.50;99.90;;;;;;5035549;28;20178;-79
2022/07/11 01:49:16;;;;;;;11.00;5.63;;;16.50;99.90;;;;;;5036330;28;20695;-77
2022/07/11 01:51:42;;;;;;;9.57;5.73;;;16.50;99.90;;;;;;5037269;28;20194;-77
2022/07/11 01:54:08;;;;;;;11.43;6.10;;;16.50;99.90;;;;;;5036873;28;20221;-77
2022/07/11 01:56:33;;;;;;;9.30;5.20;;;16.50;99.90;;;;;;5037183;28;20269;-77
2022/07/11 01:59:00;;;;;;;13.07;5.83;;;16.50;99.90;;;;;;5036291;28;20171;-80
2022/07/11 02:01:26;;;;;;;10.23;5.80;;;16.40;99.90;;;;;;5036499;28;20172;-77
2022/07/11 02:03:52;;;;;;;9.73;5.63;;;16.40;99.90;;;;;;5035912;28;20194;-77
2022/07/11 02:06:18;;;;;;;12.67;6.00;;;16.50;99.90;;;;;;5036333;28;20659;-77
2022/07/11 02:08:44;;;;;;;7.33;5.37;;;16.50;99.90;;;;;;5038127;28;20178;-77
2022/07/11 02:11:09;;;;;;;11.93;6.13;;;16.50;99.90;;;;;;5035422;28;20273;-78
2022/07/11 02:13:35;;;;;;;10.70;5.90;;;16.40;99.90;;;;;;5035851;28;20215;-78
2022/07/11 02:16:02;;;;;;;9.47;6.00;;;16.40;99.90;;;;;;5035927;28;20178;-79
2022/07/11 02:18:28;;;;;;;10.43;5.87;;;16.40;99.90;;;;;;5036043;28;20185;-76
2022/07/11 02:20:54;;;;;;;13.87;6.00;;;16.50;99.90;;;;;;5036125;28;20181;-78
2022/07/11 02:23:20;;;;;;;10.07;5.90;;;16.40;99.90;;;;;;5035819;28;20551;-79
2022/07/11 02:25:46;;;;;;;9.53;5.50;;;16.40;99.90;;;;;;5036392;28;20208;-77
2022/07/11 02:28:13;;;;;;;11.70;6.23;;;16.40;99.90;;;;;;5035800;28;20178;-77
2022/07/11 02:30:41;;;;;;;13.00;6.43;;;16.40;99.90;;;;;;5036803;28;20523;-78
2022/07/11 02:33:08;;;;;;;12.13;5.83;;;16.40;99.90;;;;;;5035537;28;20551;-77
2022/07/11 02:35:35;;;;;;;9.50;5.23;;;16.30;99.90;;;;;;5035366;28;20220;-78
2022/07/11 02:38:01;;;;;;;13.13;5.23;;;16.30;99.90;;;;;;5035051;28;20241;-80
2022/07/11 02:40:27;;;;;;;14.07;5.50;;;16.20;99.90;;;;;;5035999;28;20174;-78
2022/07/11 02:42:53;;;;;;;14.73;5.50;;;16.20;99.90;;;;;;5034975;28;20213;-78
2022/07/11 02:45:19;;;;;;;7.43;4.87;;;16.20;99.90;;;;;;5035451;28;20201;-78
2022/07/11 02:47:45;;;;;;;9.20;4.67;;;16.20;99.90;;;;;;5034868;28;20515;-78
2022/07/11 02:50:13;;;;;;;10.60;4.60;;;16.10;99.90;;;;;;5034622;28;20178;-77
2022/07/11 02:52:40;;;;;;;11.03;4.57;;;16.10;99.90;;;;;;5034833;28;20223;-79
2022/07/11 02:55:08;;;;;;;10.53;4.40;;;16.10;99.90;;;;;;5035305;28;20619;-79
2022/07/11 02:57:35;;;;;;;8.97;4.27;;;16.10;99.90;;;;;;5035049;28;20185;-77
2022/07/11 03:00:02;;;;;;;8.67;4.00;;;16.20;99.90;;;;;;5035584;28;20189;-80
2022/07/11 03:02:28;;;;;;;9.60;3.73;;;16.10;99.90;;;;;;5035292;28;20601;-77
2022/07/11 03:04:54;;;;;;;8.33;4.10;;;16.10;99.90;;;;;;5034357;28;20205;-77
2022/07/11 03:07:19;;;;;;;11.17;3.80;;;16.10;99.90;;;;;;5034569;28;20284;-78
2022/07/11 03:09:45;;;;;;;9.03;3.73;;;16.00;99.90;;;;;;5035160;28;20178;-79
2022/07/11 03:12:11;;;;;;;5.10;3.53;;;16.10;99.90;;;;;;5035262;28;20215;-78
2022/07/11 03:14:36;;;;;;;10.60;3.57;;;16.00;99.90;;;;;;5034744;28;20761;-78
2022/07/11 03:17:02;;;;;;;5.43;3.53;;;16.00;99.90;;;;;;5034752;28;20265;-77
2022/07/11 03:19:28;;;;;;;9.93;3.77;;;16.00;99.90;;;;;;5034345;28;20179;-77
2022/07/11 03:21:53;;;;;;;8.80;3.80;;;16.10;99.90;;;;;;5034141;28;20174;-78
2022/07/11 03:24:19;;;;;;;9.23;3.80;;;16.00;99.90;;;;;;5035296;28;20612;-78
2022/07/11 03:26:44;;;;;;;6.97;2.97;;;16.00;99.90;;;;;;5035683;28;20184;-79
2022/07/11 03:29:10;;;;;;;6.63;3.47;;;16.00;99.90;;;;;;5036399;28;20174;-79
2022/07/11 03:31:35;;;;;;;5.23;3.17;;;16.00;99.90;;;;;;5036176;28;20652;-79
2022/07/11 03:34:01;;;;;;;8.63;3.47;;;16.00;99.90;;;;;;5035359;28;20214;-79
2022/07/11 03:36:27;;;;;;;10.20;3.43;;;16.00;99.90;;;;;;5035538;28;20178;-78
2022/07/11 03:38:53;;;;;;;10.10;3.43;;;16.00;99.90;;;;;;5035737;28;20175;-78
2022/07/11 03:41:18;;;;;;;4.00;3.40;;;15.90;99.90;;;;;;5034074;28;20526;-80
2022/07/11 03:43:44;;;;;;;8.13;3.50;;;16.00;99.90;;;;;;5035034;28;20459;-78
2022/07/11 03:46:10;;;;;;;9.03;3.30;;;16.00;99.90;;;;;;5034545;28;20189;-79
2022/07/11 03:48:35;;;;;;;5.57;3.40;;;16.10;99.90;;;;;;5033976;28;20181;-78
2022/07/11 03:51:01;;;;;;;5.40;3.87;;;16.00;99.90;;;;;;5033978;28;20186;-79
2022/07/11 03:53:27;;;;;;;11.53;3.13;;;16.00;99.90;;;;;;5034210;28;20251;-78
2022/07/11 03:55:53;;;;;;;4.23;3.03;;;16.00;99.90;;;;;;5034685;28;20177;-78
2022/07/11 03:58:18;;;;;;;8.83;3.30;;;16.00;99.90;;;;;;5036556;28;20170;-78
2022/07/11 04:00:44;;;;;;;9.20;3.30;;;15.90;99.90;;;;;;5034920;28;20175;-79
2022/07/11 04:03:10;;;;;;;3.60;3.30;;;16.00;99.90;;;;;;5033000;28;20190;-78
2022/07/11 04:05:36;;;;;;;6.47;3.23;;;16.00;99.90;;;;;;5033817;28;20605;-78
2022/07/11 04:08:02;;;;;;;6.27;3.37;;;15.90;99.90;;;;;;5035449;28;20652;-78
2022/07/11 04:10:28;;;;;;;7.93;3.47;;;16.00;99.90;;;;;;5034579;28;20178;-80
2022/07/11 04:12:53;;;;;;;5.60;3.10;;;15.90;99.90;;;;;;5034178;28;20194;-79
2022/07/11 04:15:19;;;;;;;4.87;3.10;;;15.90;99.90;;;;;;5036104;28;20228;-78
2022/07/11 04:17:45;;;;;;;4.30;3.37;;;16.00;99.90;;;;;;5033768;28;20175;-80
2022/07/11 04:20:10;;;;;;;4.47;3.13;;;15.90;99.90;;;;;;5035905;28;20248;-79
2022/07/11 04:22:36;;;;;;;7.33;3.60;;;16.00;99.90;;;;;;5033136;28;20269;-79
2022/07/11 04:25:02;;;;;;;3.93;2.97;;;16.00;99.90;;;;;;5033626;28;20182;-78
2022/07/11 04:27:29;;;;;;;6.97;3.30;;;15.90;99.90;;;;;;5034099;28;20188;-78
2022/07/11 04:29:55;;;;;;;8.50;3.40;;;15.90;99.90;;;;;;5035196;28;20183;-78
2022/07/11 04:32:20;;;;;;;8.13;3.40;;;15.90;99.90;;;;;;5034691;28;20698;-79
2022/07/11 04:34:46;;;;;;;7.17;3.50;;;15.90;99.90;;;;;;5033867;28;20572;-79
2022/07/11 04:37:12;;;;;;;5.33;2.93;;;16.00;99.90;;;;;;5035215;28;20170;-77
2022/07/11 04:39:37;;;;;;;6.57;3.50;;;15.90;99.90;;;;;;5033507;28;20182;-77
2022/07/11 04:42:06;;;;;;;5.73;3.50;;;15.90;99.90;;;;;;5032966;28;20649;-79
2022/07/11 04:44:32;;;;;;;7.07;3.60;;;15.90;99.90;;;;;;5033570;28;20201;-77
2022/07/11 04:46:58;;;;;;;7.13;3.43;;;15.90;99.90;;;;;;5032741;28;20178;-77
2022/07/11 04:49:23;;;;;;;10.90;3.83;;;15.90;99.90;;;;;;5032533;28;20268;-77
2022/07/11 04:51:49;;;;;;;8.13;3.47;;;15.90;99.90;;;;;;5032430;28;20183;-78
2022/07/11 04:54:15;;;;;;;7.70;4.13;;;15.90;99.90;;;;;;5031367;28;20288;-77
2022/07/11 04:56:41;;;;;;;9.87;3.67;;;16.00;99.90;;;;;;5032888;28;20190;-80
2022/07/11 04:59:07;;;;;;;8.00;3.70;;;16.00;99.90;;;;;;5033036;28;20182;-79
2022/07/11 05:01:34;;;;;;;6.90;3.30;;;15.90;99.90;;;;;;5032561;28;20223;-78
2022/07/11 05:03:59;;;;;;;9.07;3.60;;;16.00;99.90;;;;;;5032775;28;20194;-79
2022/07/11 05:06:25;;;;;;;6.23;3.47;;;16.00;99.90;;;;;;5036758;28;20191;-79
2022/07/11 05:08:51;;;;;;;7.37;3.40;;;16.00;99.90;;;;;;5036527;28;20267;-79
2022/07/11 05:11:17;;;;;;;6.90;3.90;;;16.00;99.90;;;;;;5038041;28;20174;-80
2022/07/11 05:13:42;;;;;;;14.40;4.03;;;16.00;99.90;;;;;;5036985;28;20206;-79
2022/07/11 05:16:08;;;;;;;5.67;3.53;;;16.00;99.90;;;;;;5037646;28;20685;-79
2022/07/11 05:18:34;;;;;;;7.90;3.70;;;16.00;99.90;;;;;;5037231;28;20169;-80
2022/07/11 05:20:59;;;;;;;6.67;3.87;;;16.00;99.90;;;;;;5038439;28;20231;-79
2022/07/11 05:23:25;;;;;;;6.33;3.57;;;16.00;99.90;;;;;;5037399;28;20191;-79
2022/07/11 05:25:52;;;;;;;7.53;3.70;;;16.00;99.90;;;;;;5038071;28;20166;-77
2022/07/11 05:28:17;;;;;;;6.60;3.73;;;16.00;99.90;;;;;;5037913;28;20195;-78
2022/07/11 05:30:43;;;;;;;8.17;3.87;;;16.10;99.90;;;;;;5038333;28;20622;-79
2022/07/11 05:33:08;;;;;;;7.30;3.70;;;16.10;99.90;;;;;;5038804;28;20194;-79
2022/07/11 05:35:34;;;;;;;4.17;3.63;;;16.20;99.90;;;;;;5038757;28;20187;-79
2022/07/11 05:38:00;;;;;;;7.97;3.70;;;16.20;99.90;;;;;;5037849;28;20231;-79
2022/07/11 05:40:25;;;;;;;5.93;3.77;;;16.20;99.90;;;;;;5036608;28;20174;-77
2022/07/11 05:42:51;;;;;;;6.47;3.70;;;16.20;99.90;;;;;;5037338;28;20214;-80
2022/07/11 05:45:17;;;;;;;9.37;3.77;;;16.20;99.90;;;;;;5037852;28;20819;-79
2022/07/11 05:47:42;;;;;;;6.23;3.47;;;16.20;99.90;;;;;;5069933;22;20221;-85
2022/07/11 05:50:08;;;;;;;4.70;3.03;;;16.20;99.90;;;;;;5054963;28;20169;-85
2022/07/11 05:52:34;;;;;;;8.30;3.77;;;16.20;99.90;;;;;;5055067;28;20474;-84
2022/07/11 05:54:59;;;;;;;6.10;3.67;;;16.10;99.90;;;;;;5054315;28;20238;-84
2022/07/11 05:57:25;;;;;;;5.47;3.37;;;16.10;99.90;;;;;;5053377;28;20169;-84
2022/07/11 05:59:51;;;;;;;5.60;3.73;;;16.20;99.90;;;;;;5054759;28;20161;-84
2022/07/11 06:02:18;;;;;;;5.87;3.37;;;16.30;99.90;;;;;;5075992;22;20225;-81
2022/07/11 06:04:44;;;;;;;7.30;3.50;;;16.50;99.90;;;;;;5058224;28;20208;-81
2022/07/11 06:07:11;;;;;;;5.47;3.23;;;16.50;99.90;;;;;;5057242;28;20260;-80
2022/07/11 06:09:37;;;;;;;3.27;3.07;;;16.40;99.90;;;;;;5056118;28;20176;-77
2022/07/11 06:12:03;;;;;;;5.33;3.10;;;16.50;99.90;;;;;;5054656;28;20223;-77
2022/07/11 06:14:29;;;;;;;5.07;3.77;;;16.40;99.90;;;;;;5055458;28;20209;-77
2022/07/11 06:16:55;;;;;;;4.97;2.97;;;16.50;99.90;;;;;;5053932;28;20174;-77
2022/07/11 06:19:21;;;;;;;6.37;3.07;;;16.40;99.90;;;;;;5054351;28;20609;-77
2022/07/11 06:21:46;;;;;;;2.73;2.53;;;16.60;99.90;;;;;;5056516;28;20177;-79
2022/07/11 06:24:12;;;;;;;3.77;2.67;;;16.70;99.90;;;;;;5054498;28;20569;-79
2022/07/11 06:26:38;;;;;;;5.27;2.50;;;17.10;99.90;;;;;;5054975;28;20173;-78
2022/07/11 06:29:03;;;;;;;2.70;2.40;;;17.20;99.90;;;;;;5054487;28;20256;-79
2022/07/11 06:31:29;;;;;;;4.83;2.57;;;17.10;99.90;;;;;;5054653;28;20184;-77
2022/07/11 06:33:56;;;;;;;4.07;2.70;;;17.00;99.90;;;;;;5055515;28;20255;-78
2022/07/11 06:36:22;;;;;;;4.23;2.30;;;17.00;99.90;;;;;;5056184;28;20205;-78
2022/07/11 06:38:52;;;;;;;3.03;2.50;;;16.80;99.90;;;;;;5055542;28;20169;-79
2022/07/11 06:41:18;;;;;;;4.77;2.80;;;16.90;99.90;;;;;;5056068;28;20181;-79
2022/07/11 06:43:44;;;;;;;3.50;2.80;;;16.80;99.90;;;;;;5055645;28;20189;-79
2022/07/11 06:46:09;;;;;;;2.70;2.30;;;16.80;99.90;;;;;;5055926;28;20173;-79
2022/07/11 06:48:35;;;;;;;3.17;2.57;;;16.80;99.90;;;;;;5056073;28;20182;-79
2022/07/11 06:51:01;;;;;;;3.00;2.80;;;16.80;99.90;;;;;;5055444;28;20173;-80
2022/07/11 06:53:27;;;;;;;5.23;2.93;;;16.80;99.90;;;;;;5055922;28;20205;-78
2022/07/11 06:55:52;;;;;;;7.77;2.70;;;16.70;99.90;;;;;;5055777;28;20626;-80
2022/07/11 06:58:33;;;;;;;2.83;2.60;;;16.60;99.90;;;;;;5054874;28;20169;-80
2022/07/11 07:01:00;;;;;;;6.43;3.00;;;16.50;99.90;;;;;;5055824;28;20235;-80
2022/07/11 07:03:27;;;;;;;5.63;3.10;;;16.50;99.90;;;;;;5054426;28;20204;-78
2022/07/11 07:05:55;;;;;;;3.60;3.03;;;16.40;99.90;;;;;;5053793;28;20629;-76
2022/07/11 07:08:24;;;;;;;6.37;3.10;;;16.40;99.90;;;;;;5053627;28;20191;-76
2022/07/11 07:10:50;;;;;;;2.87;2.43;;;16.30;99.90;;;;;;5052873;28;20174;-76
2022/07/11 07:13:16;;;;;;;4.23;2.07;;;16.20;99.90;;;;;;5057424;28;20197;-81
2022/07/11 07:15:42;;;;;;;5.43;2.03;;;16.10;99.90;;;;;;5059744;28;20181;-81
2022/07/11 07:18:07;;;;;;;4.97;2.27;;;16.10;99.90;;;;;;5059342;28;20170;-82
2022/07/11 07:20:33;;;;;;;3.10;1.63;;;16.10;99.90;;;;;;5058503;28;20192;-77
2022/07/11 07:22:59;;;;;;;6.23;1.47;;;16.10;99.90;;;;;;5058112;28;20684;-81
2022/07/11 07:25:25;;;;;;;1.60;1.50;;;16.10;99.90;;;;;;5056739;28;20546;-80
2022/07/11 07:27:51;;;;;;;1.90;1.27;;;15.90;99.90;;;;;;5054739;28;20173;-81
2022/07/11 07:30:17;;;;;;;1.43;1.33;;;16.00;99.90;;;;;;5055205;28;20185;-80
2022/07/11 07:32:42;;;;;;;1.83;1.30;;;16.10;99.90;;;;;;5055177;28;20633;-79
2022/07/11 07:35:08;;;;;;;3.43;1.30;;;16.20;99.90;;;;;;5055478;28;20196;-82
2022/07/11 07:37:34;;;;;;;1.60;1.50;;;16.20;99.90;;;;;;5055929;28;20889;-82
2022/07/11 07:39:59;;;;;;;3.07;1.17;;;16.40;99.90;;;;;;5055552;28;20219;-81
2022/07/11 07:42:25;;;;;;;2.20;1.13;;;16.50;99.90;;;;;;5055956;28;20170;-80
2022/07/11 07:44:50;;;;;;;1.40;1.30;;;16.50;99.90;;;;;;5056256;28;20263;-80
2022/07/11 07:47:16;;;;;;;1.47;1.37;;;16.70;99.90;;;;;;5055995;28;20177;-81
2022/07/11 07:49:42;;;;;;;1.10;1.10;;;16.70;99.90;;;;;;5056250;28;20173;-80
2022/07/11 07:52:07;;;;;;;1.80;1.00;;;16.90;99.90;;;;;;5055375;28;20173;-81
2022/07/11 07:54:33;;;;;;;1.20;1.00;;;17.00;99.90;;;;;;5055980;28;20827;-80
2022/07/11 07:56:59;;;;;;;0.80;0.80;;;17.00;99.90;;;;;;5057605;28;20174;-80
2022/07/11 07:59:24;;;;;;;2.10;1.10;;;17.20;99.90;;;;;;5057128;28;20169;-81
2022/07/11 08:01:51;;;;;;;1.23;0.97;;;17.30;99.90;;;;;;5056588;28;20173;-80
2022/07/11 08:04:17;;;;;;;1.07;0.93;;;17.40;99.90;;;;;;5057106;28;20197;-81
2022/07/11 08:06:43;;;;;;;1.10;0.97;;;17.70;99.90;;;;;;5056346;28;20936;-80
2022/07/11 08:09:09;;;;;;;1.07;1.00;;;17.90;99.90;;;;;;5057249;28;20205;-81
2022/07/11 08:11:35;;;;;;;2.83;1.10;;;17.90;99.90;;;;;;5056130;28;20184;-80
2022/07/11 08:14:03;;;;;;;1.07;1.07;;;18.00;99.90;;;;;;5055855;28;20681;-81
2022/07/11 08:16:30;;;;;;;0.97;0.97;;;18.00;99.90;;;;;;5055609;28;20169;-80
2022/07/11 08:18:56;;;;;;;2.13;1.10;;;18.00;99.90;;;;;;5056422;28;20585;-79
2022/07/11 08:21:22;;;;;;;1.33;1.20;;;18.00;99.90;;;;;;5054615;28;20169;-79
2022/07/11 08:23:48;;;;;;;1.43;1.20;;;17.80;99.90;;;;;;5054987;28;20197;-80
2022/07/11 08:26:13;;;;;;;3.13;1.33;;;17.70;99.90;;;;;;5054340;28;20177;-78
2022/07/11 08:28:39;;;;;;;3.80;1.30;;;17.60;99.90;;;;;;5054864;28;20338;-79
2022/07/11 08:31:05;;;;;;;3.23;1.10;;;17.70;99.90;;;;;;5053769;28;20177;-79
2022/07/11 08:33:30;;;;;;;1.10;1.10;;;17.80;99.90;;;;;;5053768;28;20193;-79
2022/07/11 08:35:56;;;;;;;2.07;1.20;;;17.70;99.90;;;;;;5053481;28;20688;-79
2022/07/11 08:38:22;;;;;;;1.87;1.10;;;17.80;99.90;;;;;;5054524;28;20652;-80
2022/07/11 08:40:51;;;;;;;1.07;1.07;;;18.10;99.90;;;;;;5053749;28;20650;-79
2022/07/11 08:43:21;;;;;;;1.70;1.00;;;18.00;99.90;;;;;;5054194;28;20612;-79
2022/07/11 08:45:48;;;;;;;1.20;1.10;;;17.90;99.90;;;;;;5053974;28;20267;-79
2022/07/11 08:48:15;;;;;;;1.00;1.00;;;17.90;99.90;;;;;;5054192;28;20591;-79
2022/07/11 08:50:40;;;;;;;1.80;1.07;;;18.10;99.90;;;;;;5053975;28;20206;-79
2022/07/11 08:53:06;;;;;;;1.10;1.10;;;18.50;99.90;;;;;;5054270;28;20283;-79
2022/07/11 08:55:32;;;;;;;1.10;1.10;;;18.60;99.90;;;;;;5054612;28;20201;-78
2022/07/11 08:57:59;;;;;;;1.50;1.20;;;18.50;99.90;;;;;;5054532;28;20177;-79
2022/07/11 09:00:25;;;;;;;1.20;1.20;;;18.50;99.90;;;;;;5055077;28;20173;-80
2022/07/11 09:02:53;;;;;;;3.50;1.13;;;18.50;99.90;;;;;;5055015;28;20703;-80
2022/07/11 09:05:18;;;;;;;1.00;1.00;;;18.70;99.90;;;;;;5064407;28;20189;-79
2022/07/11 09:07:49;;;;;;;0.70;0.67;;;18.80;99.90;;;;;;5064376;28;20523;-79
2022/07/11 09:10:17;;;;;;;1.73;0.70;;;19.00;99.90;;;;;;5065896;28;20538;-79
2022/07/11 09:12:59;;;;;;;1.10;0.77;;;19.00;99.90;;;;;;5066030;28;20176;-79
2022/07/11 09:15:51;;;;;;;0.60;0.60;;;19.10;99.90;;;;;;5062399;28;20560;-80
2022/07/11 09:18:29;;;;;;;0.60;0.60;;;19.50;99.90;;;;;;5061975;28;20181;-79
2022/07/11 09:26:36;;;;;;;1.67;0.80;;;19.30;99.90;;;;;;5055060;28;20199;-79
2022/07/11 09:29:22;;;;;;;0.70;0.70;;;19.20;99.90;;;;;;5052241;28;20173;-79
2022/07/11 09:31:48;;;;;;;0.82;0.82;;;19.10;99.90;;;;;;5054011;28;20211;-79
2022/07/11 09:34:19;;;;;;;0.93;0.90;;;18.80;99.90;;;;;;5054128;28;20208;-79
2022/07/11 09:36:56;;;;;;;2.05;1.15;;;18.80;99.90;;;;;;5054746;28;20196;-81
2022/07/11 09:39:24;;;;;;;5.00;0.97;;;19.00;99.90;;;;;;5053619;28;20203;-80
2022/07/11 09:41:54;;;;;;;1.00;0.90;;;18.90;99.90;;;;;;5053929;28;20638;-78
2022/07/11 09:44:33;;;;;;;8.00;1.10;;;18.80;99.90;;;;;;5052680;28;20292;-78
2022/07/11 09:46:59;;;;;;;0.90;0.90;;;18.80;99.90;;;;;;5053828;28;20526;-80
2022/07/11 09:49:36;;;;;;;1.00;0.87;;;19.10;99.90;;;;;;5054152;28;20227;-81
2022/07/11 09:52:16;;;;;;;3.75;0.88;;;19.20;99.90;;;;;;5056476;28;20173;-79
2022/07/11 09:54:54;;;;;;;1.37;1.00;;;19.20;99.90;;;;;;5057314;28;20216;-78
2022/07/11 09:57:31;;;;;;;1.77;0.90;;;19.20;99.90;;;;;;5056559;28;20165;-78
2022/07/11 09:59:57;;;;;;;2.00;1.00;;;19.30;99.90;;;;;;5057096;28;20169;-78
2022/07/11 10:02:24;;;;;;;0.90;0.90;;;19.40;99.90;;;;;;5056525;28;20188;-79
2022/07/11 10:04:50;;;;;;;2.43;1.00;;;19.30;99.90;;;;;;5058360;28;20216;-79
2022/07/11 10:07:15;;;;;;;1.40;0.80;;;19.10;99.90;;;;;;5056461;28;20609;-79
2022/07/11 10:09:41;;;;;;;1.07;1.00;;;19.10;99.90;;;;;;5056174;28;20174;-79
2022/07/11 10:12:08;;;;;;;1.00;1.00;;;19.20;99.90;;;;;;5056368;28;20308;-80
2022/07/11 10:14:37;;;;;;;1.30;1.20;;;19.30;99.90;;;;;;5056531;28;20292;-79
2022/07/11 10:17:13;;;;;;;2.10;1.30;;;19.30;99.90;;;;;;5057538;28;20177;-79
2022/07/11 10:19:53;;;;;;;3.30;1.40;;;19.10;99.90;;;;;;5056603;28;20196;-79
2022/07/11 10:22:50;;;;;;;1.40;1.30;;;18.90;99.90;;;;;;5058595;28;20219;-81
2022/07/11 10:25:35;;;;;;;1.30;1.20;;;19.10;99.90;;;;;;5059954;28;20282;-80
2022/07/11 10:28:36;;;;;;;2.95;1.20;;;19.20;99.90;;;;;;5057499;28;20198;-80
2022/07/11 10:31:03;;;;;;;3.30;1.33;;;19.10;99.90;;;;;;5057064;28;20184;-80
2022/07/11 10:33:29;;;;;;;2.37;1.00;;;19.20;99.90;;;;;;5056634;28;20193;-81
2022/07/11 10:35:56;;;;;;;1.10;1.10;;;19.40;99.90;;;;;;5058153;28;20257;-81
2022/07/11 10:38:26;;;;;;;1.20;1.10;;;19.50;99.90;;;;;;5057311;28;20181;-80
2022/07/11 10:40:54;;;;;;;2.30;1.30;;;19.60;99.90;;;;;;5058224;28;20177;-80
2022/07/11 10:43:33;;;;;;;0.80;0.80;;;19.50;99.90;;;;;;5057641;28;20197;-80
2022/07/11 10:46:01;;;;;;;1.23;1.10;;;19.60;99.90;;;;;;5058334;28;20165;-80
2022/07/11 10:48:30;;;;;;;1.40;1.30;;;19.60;99.90;;;;;;5057705;28;20219;-80
2022/07/11 10:51:24;;;;;;;1.27;1.20;;;19.70;99.90;;;;;;5056834;28;20237;-80
2022/07/11 10:53:52;;;;;;;1.67;1.20;;;19.90;99.90;;;;;;5056598;28;20660;-80
2022/07/11 10:56:36;;;;;;;1.63;1.00;;;20.00;99.90;;;;;;5058316;28;20189;-81
2022/07/11 10:59:16;;;;;;;1.13;1.10;;;20.10;99.90;;;;;;5055126;28;20677;-85
2022/07/11 11:02:01;;;;;;;1.10;0.90;;;20.20;99.90;;;;;;5055235;28;20192;-82
2022/07/11 11:04:59;;;;;;;1.00;1.00;;;20.30;99.90;;;;;;5056687;28;20197;-83
2022/07/11 11:07:38;;;;;;;0.95;0.95;;;20.60;99.90;;;;;;5057373;28;20161;-82
2022/07/11 11:10:08;;;;;;;1.00;1.00;;;21.00;99.90;;;;;;5056276;28;20176;-84
2022/07/11 11:13:05;;;;;;;2.30;1.17;;;21.00;99.90;;;;;;5056589;28;20319;-83
2022/07/11 11:15:56;;;;;;;1.98;1.83;;;20.90;99.90;;;;;;5055110;28;20205;-84
2022/07/11 11:18:25;;;;;;;1.27;0.93;;;20.70;99.90;;;;;;5056217;28;20162;-85
2022/07/11 11:21:02;;;;;;;0.80;0.80;;;20.40;99.90;;;;;;5057215;28;20176;-85
2022/07/11 11:23:33;;;;;;;1.10;1.10;;;20.40;99.90;;;;;;5057778;28;20541;-85
2022/07/11 11:26:10;;;;;;;0.88;0.88;;;20.40;99.90;;;;;;5057517;28;20176;-85
2022/07/11 11:28:37;;;;;;;1.38;1.20;;;20.60;99.90;;;;;;5036274;28;20174;-84
2022/07/11 11:31:05;;;;;;;1.88;1.00;;;20.90;99.90;;;;;;5052951;28;20166;-85
2022/07/11 11:33:33;;;;;;;1.15;1.00;;;21.20;99.90;;;;;;5037828;28;20660;-85
2022/07/11 11:36:01;;;;;;;1.27;0.90;;;21.20;99.90;;;;;;5053559;28;20177;-85
2022/07/11 11:38:35;;;;;;;0.75;0.75;;;21.10;99.90;;;;;;5036179;28;20262;-83
2022/07/11 11:41:00;;;;;;;1.50;0.90;;;21.10;99.90;;;;;;5054386;28;20166;-85
2022/07/11 11:43:26;;;;;;;0.80;0.80;;;21.20;99.90;;;;;;5053727;28;20674;-85
2022/07/11 11:45:55;;;;;;;1.75;1.52;;;21.20;99.90;;;;;;5053684;28;20816;-85
2022/07/11 11:48:30;;;;;;;2.97;0.98;;;21.30;99.90;;;;;;5098416;22;20233;-82
2022/07/11 11:51:06;;;;;;;0.90;0.90;;;21.10;99.90;;;;;;5032080;28;20177;-82
2022/07/11 11:53:39;;;;;;;0.90;0.90;;;20.90;99.90;;;;;;5034823;28;20534;-82
2022/07/11 11:56:23;;;;;;;0.88;0.88;;;20.50;99.90;;;;;;5029792;28;20201;-84
2022/07/11 11:58:50;;;;;;;0.90;0.90;;;20.30;99.90;;;;;;5031974;28;20665;-84
2022/07/11 12:01:38;;;;;;;1.08;0.93;;;20.20;99.90;;;;;;5066647;22;20684;-83
2022/07/11 12:04:11;;;;;;;0.90;0.90;;;20.30;99.90;;;;;;5073503;28;20165;-85
2022/07/11 12:06:44;;;;;;;1.00;1.00;;;20.60;99.90;;;;;;5076693;28;20196;-83
2022/07/11 12:09:11;;;;;;;0.95;0.93;;;20.70;99.90;;;;;;5075676;28;20183;-80
2022/07/11 12:11:38;;;;;;;0.60;0.60;;;20.80;99.90;;;;;;5073251;28;20552;-81
2022/07/11 12:14:06;;;;;;;1.38;1.17;;;20.70;99.90;;;;;;5074446;28;20200;-84
2022/07/11 12:16:41;;;;;;;2.15;0.98;;;20.80;99.90;;;;;;5074821;28;20175;-83
2022/07/11 12:19:08;;;;;;;1.55;0.73;;;20.70;99.90;;;;;;5075161;28;20167;-84
2022/07/11 12:21:36;;;;;;;0.90;0.90;;;20.90;99.90;;;;;;5076059;28;20338;-84
2022/07/11 12:24:04;;;;;;;1.45;0.90;;;21.00;99.90;;;;;;5075576;28;20200;-84
2022/07/11 12:26:33;;;;;;;0.90;0.90;;;21.00;99.90;;;;;;5073994;28;20568;-84
2022/07/11 12:29:02;;;;;;;1.05;1.05;;;21.10;99.90;;;;;;5074866;28;20176;-82
2022/07/11 12:31:59;;;;;;;1.08;1.08;;;21.10;99.90;;;;;;5071799;28;20244;-84
2022/07/11 12:34:31;;;;;;;0.82;0.82;;;21.20;99.90;;;;;;5074942;28;20192;-82
2022/07/11 12:37:14;;;;;;;1.00;1.00;;;21.20;99.90;;;;;;5073675;28;20180;-83
2022/07/11 12:40:00;;;;;;;0.80;0.80;;;20.90;99.90;;;;;;5072455;28;20218;-82
2022/07/11 12:42:28;;;;;;;1.40;0.90;;;20.70;99.90;;;;;;5072598;28;20687;-81
2022/07/11 12:45:08;;;;;;;0.90;0.90;;;20.80;99.90;;;;;;5073989;28;20199;-82
2022/07/11 12:47:39;;;;;;;0.88;0.88;;;20.90;99.90;;;;;;5074137;28;20168;-81
2022/07/11 12:50:15;;;;;;;1.00;1.00;;;21.10;99.90;;;;;;5073146;28;20177;-85
2022/07/11 12:52:44;;;;;;;1.20;1.00;;;21.00;99.90;;;;;;5073117;28;20196;-86
2022/07/11 12:55:11;;;;;;;0.90;0.90;;;21.20;99.90;;;;;;5071837;28;20684;-83
2022/07/11 12:57:38;;;;;;;1.20;1.10;;;21.00;99.90;;;;;;5072815;28;20178;-86